SWA1147 KDEN-KLGA
Flight info
| Callsign | SWA1147 |
|---|---|
| Flight time | N/A |
| Altitude | 37000 |
| Route | EMMYS8 ZIRKL LNK DSM GERBS Q186 WEVEL ETG MIP4 |
| Aircraft | B738/M-SADE2E3GIJ4RWZ/LB1D1 |
Departure
| Time | 2026-05-06 21:18 |
|---|---|
| Airport | Denver International Airport (KDEN) |
Arrival
| Time | N/A |
|---|---|
| Airport | LaGuardia Airport (KLGA) |
| Time | Latitude | Longitude | Altitude | Speed | Heading |
|---|---|---|---|---|---|
| 2026-05-06 20:55 | 39.86248 | -104.67046 | 5376 ft | 0 kts | 0° |
| 2026-05-06 21:08 | 39.86247 | -104.67046 | 5376 ft | 2 kts | 0° |
| 2026-05-06 21:08 | 39.86231 | -104.67046 | 5371 ft | 2 kts | 360° |
| 2026-05-06 21:09 | 39.86214 | -104.67046 | 5373 ft | 2 kts | 0° |
| 2026-05-06 21:09 | 39.86198 | -104.67046 | 5374 ft | 2 kts | 0° |
| 2026-05-06 21:09 | 39.86182 | -104.67046 | 5375 ft | 2 kts | 0° |
| 2026-05-06 21:09 | 39.86175 | -104.67046 | 5373 ft | 0 kts | 0° |
| 2026-05-06 21:11 | 39.86183 | -104.67035 | 5374 ft | 3 kts | 62° |
| 2026-05-06 21:11 | 39.86185 | -104.66973 | 5375 ft | 0 kts | 90° |
| 2026-05-06 21:12 | 39.86185 | -104.66971 | 5375 ft | 0 kts | 90° |
| 2026-05-06 21:12 | 39.86185 | -104.66927 | 5376 ft | 12 kts | 90° |
| 2026-05-06 21:12 | 39.86186 | -104.66747 | 5376 ft | 28 kts | 89° |
| 2026-05-06 21:13 | 39.86187 | -104.66535 | 5376 ft | 5 kts | 74° |
| 2026-05-06 21:13 | 39.86218 | -104.66512 | 5375 ft | 10 kts | 9° |
| 2026-05-06 21:13 | 39.86255 | -104.66510 | 5375 ft | 0 kts | 1° |
| 2026-05-06 21:13 | 39.86344 | -104.66508 | 5375 ft | 30 kts | 360° |
| 2026-05-06 21:14 | 39.86577 | -104.66478 | 5375 ft | 28 kts | 41° |
| 2026-05-06 21:14 | 39.86627 | -104.66339 | 5376 ft | 10 kts | 21° |
| 2026-05-06 21:14 | 39.86752 | -104.66338 | 5372 ft | 30 kts | 0° |
| 2026-05-06 21:14 | 39.86978 | -104.66334 | 5368 ft | 34 kts | 0° |
| 2026-05-06 21:15 | 39.87216 | -104.66333 | 5363 ft | 35 kts | 0° |
| 2026-05-06 21:15 | 39.87451 | -104.66314 | 5360 ft | 31 kts | 29° |
| 2026-05-06 21:15 | 39.87624 | -104.66211 | 5361 ft | 22 kts | 0° |
| 2026-05-06 21:15 | 39.87645 | -104.66211 | 5361 ft | 0 kts | 0° |
| 2026-05-06 21:16 | 39.87673 | -104.66212 | 5362 ft | 14 kts | 359° |
| 2026-05-06 21:16 | 39.87750 | -104.66204 | 5361 ft | 6 kts | 35° |
| 2026-05-06 21:16 | 39.87755 | -104.66189 | 5360 ft | 2 kts | 81° |
| 2026-05-06 21:16 | 39.87756 | -104.66155 | 5359 ft | 4 kts | 89° |
| 2026-05-06 21:17 | 39.87756 | -104.66152 | 5359 ft | 0 kts | 89° |
| 2026-05-06 21:17 | 39.87756 | -104.66113 | 5358 ft | 27 kts | 89° |
| 2026-05-06 21:17 | 39.87751 | -104.65489 | 5352 ft | 108 kts | 90° |
| 2026-05-06 21:17 | 39.87751 | -104.64200 | 5383 ft | 171 kts | 88° |
| 2026-05-06 21:18 | 39.87775 | -104.62537 | 5834 ft | 187 kts | 88° |
| 2026-05-06 21:18 | 39.87774 | -104.60815 | 6530 ft | 189 kts | 92° |
| 2026-05-06 21:18 | 39.87732 | -104.59042 | 6940 ft | 206 kts | 92° |
| 2026-05-06 21:18 | 39.87692 | -104.57099 | 7098 ft | 223 kts | 91° |
| 2026-05-06 21:19 | 39.87654 | -104.54994 | 7255 ft | 240 kts | 91° |
| 2026-05-06 21:19 | 39.87619 | -104.52750 | 7434 ft | 253 kts | 91° |
| 2026-05-06 21:19 | 39.87586 | -104.50460 | 7781 ft | 257 kts | 91° |
| 2026-05-06 21:19 | 39.87555 | -104.48120 | 8189 ft | 259 kts | 91° |
| 2026-05-06 21:20 | 39.87525 | -104.45766 | 8588 ft | 261 kts | 91° |
| 2026-05-06 21:20 | 39.87495 | -104.43396 | 8978 ft | 262 kts | 91° |
| 2026-05-06 21:20 | 39.87464 | -104.41011 | 9355 ft | 264 kts | 91° |
| 2026-05-06 21:20 | 39.87443 | -104.38621 | 9735 ft | 265 kts | 90° |
| 2026-05-06 21:21 | 39.87435 | -104.36211 | 10107 ft | 267 kts | 90° |
| 2026-05-06 21:21 | 39.87427 | -104.33787 | 10427 ft | 269 kts | 90° |
| 2026-05-06 21:21 | 39.87418 | -104.31337 | 10730 ft | 271 kts | 90° |
| 2026-05-06 21:21 | 39.87408 | -104.28905 | 11022 ft | 273 kts | 90° |
| 2026-05-06 21:22 | 39.87396 | -104.26413 | 11315 ft | 275 kts | 89° |
| 2026-05-06 21:22 | 39.87384 | -104.23910 | 11598 ft | 277 kts | 89° |
| 2026-05-06 21:22 | 39.87371 | -104.21385 | 11875 ft | 279 kts | 89° |
| 2026-05-06 21:22 | 39.87358 | -104.18847 | 12142 ft | 281 kts | 89° |
| 2026-05-06 21:23 | 39.87343 | -104.16284 | 12404 ft | 283 kts | 89° |
| 2026-05-06 21:23 | 39.87328 | -104.13708 | 12661 ft | 285 kts | 89° |
| 2026-05-06 21:23 | 39.87312 | -104.11118 | 12921 ft | 287 kts | 89° |
| 2026-05-06 21:23 | 39.87295 | -104.08546 | 13175 ft | 288 kts | 89° |
| 2026-05-06 21:24 | 39.87277 | -104.05923 | 13420 ft | 290 kts | 89° |
| 2026-05-06 21:24 | 39.87259 | -104.03291 | 13667 ft | 292 kts | 89° |
| 2026-05-06 21:24 | 39.87240 | -104.00637 | 13901 ft | 294 kts | 89° |
| 2026-05-06 21:24 | 39.87221 | -103.97971 | 14120 ft | 295 kts | 89° |
| 2026-05-06 21:25 | 39.87201 | -103.95292 | 14322 ft | 296 kts | 89° |
| 2026-05-06 21:25 | 39.87180 | -103.92604 | 14521 ft | 298 kts | 89° |
| 2026-05-06 21:25 | 39.87196 | -103.89901 | 14720 ft | 298 kts | 85° |
| 2026-05-06 21:25 | 39.87369 | -103.87206 | 14900 ft | 299 kts | 82° |
| 2026-05-06 21:26 | 39.87581 | -103.84505 | 15084 ft | 300 kts | 82° |
| 2026-05-06 21:26 | 39.87796 | -103.81791 | 15264 ft | 302 kts | 82° |
| 2026-05-06 21:26 | 39.87997 | -103.79060 | 15438 ft | 303 kts | 83° |
| 2026-05-06 21:26 | 39.88189 | -103.76318 | 15612 ft | 305 kts | 83° |
| 2026-05-06 21:27 | 39.88381 | -103.73566 | 15783 ft | 306 kts | 82° |
| 2026-05-06 21:27 | 39.88633 | -103.70846 | 15941 ft | 307 kts | 79° |
| 2026-05-06 21:27 | 39.88949 | -103.68089 | 16110 ft | 308 kts | 79° |
| 2026-05-06 21:27 | 39.89280 | -103.65324 | 16263 ft | 309 kts | 79° |
| 2026-05-06 21:28 | 39.89611 | -103.62557 | 16423 ft | 310 kts | 79° |
| 2026-05-06 21:28 | 39.89943 | -103.59762 | 16562 ft | 313 kts | 79° |
| 2026-05-06 21:28 | 39.90276 | -103.56922 | 16607 ft | 322 kts | 79° |
| 2026-05-06 21:28 | 39.90619 | -103.53980 | 16656 ft | 335 kts | 79° |
| 2026-05-06 21:29 | 39.90972 | -103.50922 | 16771 ft | 348 kts | 79° |
| 2026-05-06 21:29 | 39.91335 | -103.47754 | 16869 ft | 359 kts | 79° |
| 2026-05-06 21:29 | 39.91707 | -103.44481 | 16962 ft | 371 kts | 79° |
| 2026-05-06 21:29 | 39.92084 | -103.41153 | 17046 ft | 381 kts | 79° |
| 2026-05-06 21:30 | 39.92473 | -103.37697 | 17170 ft | 389 kts | 80° |
| 2026-05-06 21:30 | 39.92867 | -103.34185 | 17438 ft | 393 kts | 80° |
| 2026-05-06 21:30 | 39.93261 | -103.30651 | 17772 ft | 395 kts | 80° |
| 2026-05-06 21:30 | 39.93656 | -103.27105 | 18078 ft | 397 kts | 80° |
| 2026-05-06 21:31 | 39.94054 | -103.23522 | 18353 ft | 400 kts | 80° |
| 2026-05-06 21:31 | 39.94452 | -103.19924 | 18608 ft | 402 kts | 80° |
| 2026-05-06 21:31 | 39.94852 | -103.16303 | 18857 ft | 404 kts | 80° |
| 2026-05-06 21:31 | 39.95252 | -103.12671 | 19114 ft | 406 kts | 80° |
| 2026-05-06 21:32 | 39.95654 | -103.09017 | 19345 ft | 408 kts | 80° |
| 2026-05-06 21:32 | 39.96453 | -103.01713 | 19792 ft | 412 kts | 80° |
| 2026-05-06 21:32 | 39.96857 | -102.98004 | 20011 ft | 414 kts | 80° |
| 2026-05-06 21:33 | 39.97261 | -102.94281 | 20224 ft | 416 kts | 81° |
| 2026-05-06 21:33 | 39.97667 | -102.90533 | 20433 ft | 418 kts | 81° |
| 2026-05-06 21:33 | 39.98072 | -102.86777 | 20646 ft | 419 kts | 81° |
| 2026-05-06 21:33 | 39.98478 | -102.83001 | 20842 ft | 421 kts | 81° |
| 2026-05-06 21:34 | 39.98885 | -102.79212 | 21046 ft | 423 kts | 81° |
| 2026-05-06 21:34 | 39.99292 | -102.75404 | 21230 ft | 425 kts | 81° |
| 2026-05-06 21:34 | 39.99699 | -102.71584 | 21417 ft | 426 kts | 81° |
| 2026-05-06 21:34 | 40.00107 | -102.67740 | 21589 ft | 428 kts | 81° |
| 2026-05-06 21:35 | 40.00516 | -102.63878 | 21761 ft | 430 kts | 81° |
| 2026-05-06 21:35 | 40.00924 | -102.60012 | 21928 ft | 432 kts | 81° |
| 2026-05-06 21:35 | 40.01328 | -102.56170 | 22099 ft | 433 kts | 81° |
| 2026-05-06 21:35 | 40.01738 | -102.52268 | 22263 ft | 435 kts | 81° |
| 2026-05-06 21:36 | 40.02148 | -102.48345 | 22431 ft | 437 kts | 81° |
| 2026-05-06 21:36 | 40.02558 | -102.44408 | 22587 ft | 438 kts | 81° |
| 2026-05-06 21:36 | 40.02968 | -102.40457 | 22726 ft | 440 kts | 81° |
| 2026-05-06 21:36 | 40.03378 | -102.36496 | 22878 ft | 442 kts | 81° |
| 2026-05-06 21:37 | 40.03788 | -102.32519 | 23021 ft | 443 kts | 82° |
| 2026-05-06 21:37 | 40.04198 | -102.28523 | 23154 ft | 445 kts | 82° |
| 2026-05-06 21:37 | 40.04609 | -102.24515 | 23299 ft | 446 kts | 82° |
| 2026-05-06 21:37 | 40.05019 | -102.20491 | 23421 ft | 448 kts | 82° |
| 2026-05-06 21:38 | 40.05430 | -102.16453 | 23536 ft | 450 kts | 82° |
| 2026-05-06 21:38 | 40.05841 | -102.12396 | 23675 ft | 452 kts | 82° |
| 2026-05-06 21:38 | 40.06249 | -102.08345 | 23973 ft | 457 kts | 82° |
| 2026-05-06 21:38 | 40.06660 | -102.04230 | 24493 ft | 456 kts | 82° |
| 2026-05-06 21:39 | 40.07070 | -102.00127 | 25010 ft | 456 kts | 82° |
| 2026-05-06 21:39 | 40.07482 | -101.96000 | 25444 ft | 458 kts | 82° |
| 2026-05-06 21:39 | 40.07894 | -101.91855 | 25831 ft | 462 kts | 82° |
| 2026-05-06 21:39 | 40.08307 | -101.87689 | 26219 ft | 464 kts | 82° |
| 2026-05-06 21:40 | 40.08721 | -101.83497 | 26636 ft | 466 kts | 82° |
| 2026-05-06 21:40 | 40.09135 | -101.79291 | 27035 ft | 468 kts | 82° |
| 2026-05-06 21:40 | 40.09550 | -101.75058 | 27408 ft | 471 kts | 82° |
| 2026-05-06 21:40 | 40.09965 | -101.70808 | 27764 ft | 473 kts | 82° |
| 2026-05-06 21:41 | 40.10381 | -101.66537 | 28139 ft | 475 kts | 82° |
| 2026-05-06 21:41 | 40.10797 | -101.62241 | 28496 ft | 478 kts | 82° |
| 2026-05-06 21:41 | 40.11209 | -101.57977 | 28829 ft | 480 kts | 82° |
| 2026-05-06 21:41 | 40.11627 | -101.53629 | 29158 ft | 483 kts | 82° |
| 2026-05-06 21:42 | 40.12044 | -101.49263 | 29482 ft | 485 kts | 82° |
| 2026-05-06 21:42 | 40.12463 | -101.44878 | 29797 ft | 487 kts | 82° |
| 2026-05-06 21:42 | 40.12882 | -101.40467 | 30099 ft | 490 kts | 82° |
| 2026-05-06 21:42 | 40.13327 | -101.36034 | 30357 ft | 492 kts | 80° |
| 2026-05-06 21:43 | 40.13993 | -101.31640 | 30580 ft | 494 kts | 76° |
| 2026-05-06 21:43 | 40.14827 | -101.27263 | 30796 ft | 497 kts | 74° |
| 2026-05-06 21:43 | 40.15734 | -101.22891 | 31048 ft | 498 kts | 73° |
| 2026-05-06 21:43 | 40.16641 | -101.18575 | 31338 ft | 499 kts | 73° |
| 2026-05-06 21:44 | 40.17544 | -101.14194 | 31664 ft | 499 kts | 73° |
| 2026-05-06 21:44 | 40.18423 | -101.09806 | 31993 ft | 499 kts | 74° |
| 2026-05-06 21:44 | 40.19283 | -101.05407 | 32335 ft | 498 kts | 75° |
| 2026-05-06 21:44 | 40.20125 | -101.01011 | 32631 ft | 498 kts | 75° |
| 2026-05-06 21:45 | 40.20958 | -100.96615 | 32934 ft | 499 kts | 75° |
| 2026-05-06 21:45 | 40.21509 | -100.93692 | 33129 ft | 499 kts | 75° |
| 2026-05-06 21:45 | 40.22338 | -100.89280 | 33423 ft | 499 kts | 75° |
| 2026-05-06 21:45 | 40.23438 | -100.83415 | 33813 ft | 499 kts | 75° |
| 2026-05-06 21:46 | 40.23998 | -100.80428 | 34011 ft | 499 kts | 75° |
| 2026-05-06 21:46 | 40.24813 | -100.76074 | 34269 ft | 500 kts | 75° |
| 2026-05-06 21:46 | 40.25651 | -100.71594 | 34501 ft | 500 kts | 75° |
| 2026-05-06 21:46 | 40.26466 | -100.67225 | 34717 ft | 501 kts | 75° |
| 2026-05-06 21:47 | 40.27291 | -100.62797 | 34944 ft | 501 kts | 75° |
| 2026-05-06 21:47 | 40.28118 | -100.58351 | 35163 ft | 502 kts | 75° |
| 2026-05-06 21:47 | 40.28942 | -100.53904 | 35383 ft | 502 kts | 75° |
| 2026-05-06 21:47 | 40.29765 | -100.49458 | 35597 ft | 502 kts | 75° |
| 2026-05-06 21:48 | 40.30586 | -100.45010 | 35816 ft | 503 kts | 75° |
| 2026-05-06 21:48 | 40.31407 | -100.40550 | 36032 ft | 503 kts | 75° |
| 2026-05-06 21:48 | 40.32227 | -100.36086 | 36188 ft | 504 kts | 75° |
| 2026-05-06 21:48 | 40.33047 | -100.31611 | 36299 ft | 507 kts | 75° |
| 2026-05-06 21:49 | 40.33870 | -100.27111 | 36404 ft | 509 kts | 75° |
| 2026-05-06 21:49 | 40.34696 | -100.22582 | 36530 ft | 511 kts | 76° |
| 2026-05-06 21:49 | 40.35522 | -100.18044 | 36725 ft | 511 kts | 76° |
| 2026-05-06 21:49 | 40.36345 | -100.13510 | 36945 ft | 511 kts | 76° |
| 2026-05-06 21:50 | 40.37156 | -100.09031 | 37135 ft | 511 kts | 76° |
| 2026-05-06 21:50 | 40.37979 | -100.04473 | 37124 ft | 514 kts | 76° |
| 2026-05-06 21:50 | 40.39623 | -99.95344 | 37131 ft | 513 kts | 76° |
| 2026-05-06 21:51 | 40.41247 | -99.86272 | 37139 ft | 510 kts | 76° |
| 2026-05-06 21:51 | 40.42860 | -99.77225 | 37138 ft | 508 kts | 76° |
| 2026-05-06 21:52 | 40.44463 | -99.68189 | 37139 ft | 506 kts | 76° |
| 2026-05-06 21:52 | 40.46047 | -99.59221 | 37138 ft | 507 kts | 76° |
| 2026-05-06 21:53 | 40.47634 | -99.50188 | 37136 ft | 508 kts | 76° |
| 2026-05-06 21:53 | 40.49217 | -99.41130 | 37134 ft | 510 kts | 76° |
| 2026-05-06 21:54 | 40.50795 | -99.32059 | 37140 ft | 513 kts | 77° |
| 2026-05-06 21:54 | 40.52382 | -99.22895 | 37135 ft | 515 kts | 77° |
| 2026-05-06 21:55 | 40.53969 | -99.13680 | 37134 ft | 517 kts | 77° |
| 2026-05-06 21:55 | 40.55555 | -99.04420 | 37140 ft | 520 kts | 77° |
| 2026-05-06 21:56 | 40.57132 | -98.95171 | 37134 ft | 521 kts | 77° |
| 2026-05-06 21:56 | 40.58713 | -98.85847 | 37138 ft | 522 kts | 77° |
| 2026-05-06 21:57 | 40.60287 | -98.76516 | 37133 ft | 522 kts | 77° |
| 2026-05-06 21:57 | 40.61852 | -98.67192 | 37127 ft | 521 kts | 77° |
| 2026-05-06 21:58 | 40.63400 | -98.57919 | 37128 ft | 521 kts | 77° |
| 2026-05-06 21:58 | 40.64947 | -98.48601 | 37110 ft | 520 kts | 77° |
| 2026-05-06 21:59 | 40.66484 | -98.39295 | 37113 ft | 519 kts | 78° |
| 2026-05-06 21:59 | 40.68011 | -98.30000 | 37115 ft | 519 kts | 78° |
| 2026-05-06 22:00 | 40.69523 | -98.20748 | 37117 ft | 518 kts | 78° |
| 2026-05-06 22:00 | 40.71034 | -98.11453 | 37115 ft | 518 kts | 78° |
| 2026-05-06 22:01 | 40.72539 | -98.02144 | 37110 ft | 518 kts | 78° |
| 2026-05-06 22:01 | 40.74029 | -97.92876 | 37107 ft | 519 kts | 78° |
| 2026-05-06 22:02 | 40.75522 | -97.83542 | 37112 ft | 519 kts | 78° |
| 2026-05-06 22:02 | 40.77007 | -97.74205 | 37105 ft | 520 kts | 78° |
| 2026-05-06 22:03 | 40.78488 | -97.64844 | 37107 ft | 521 kts | 78° |
| 2026-05-06 22:03 | 40.79957 | -97.55504 | 37096 ft | 523 kts | 78° |
| 2026-05-06 22:04 | 40.81431 | -97.46080 | 37113 ft | 524 kts | 78° |
| 2026-05-06 22:04 | 40.82900 | -97.36632 | 37116 ft | 526 kts | 79° |
| 2026-05-06 22:05 | 40.84359 | -97.27202 | 37122 ft | 527 kts | 79° |
| 2026-05-06 22:05 | 40.85821 | -97.17688 | 37114 ft | 528 kts | 79° |
| 2026-05-06 22:06 | 40.87271 | -97.08208 | 37114 ft | 529 kts | 79° |
| 2026-05-06 22:06 | 40.88722 | -96.98661 | 37103 ft | 530 kts | 79° |
| 2026-05-06 22:07 | 40.90168 | -96.89088 | 37104 ft | 530 kts | 79° |
| 2026-05-06 22:07 | 40.91607 | -96.79514 | 37097 ft | 531 kts | 79° |
| 2026-05-06 22:08 | 40.93065 | -96.70002 | 37099 ft | 531 kts | 78° |
| 2026-05-06 22:08 | 40.94774 | -96.60492 | 37101 ft | 531 kts | 76° |
| 2026-05-06 22:09 | 40.96545 | -96.50987 | 37110 ft | 532 kts | 76° |
| 2026-05-06 22:09 | 40.98283 | -96.41430 | 37103 ft | 532 kts | 77° |
| 2026-05-06 22:10 | 40.99972 | -96.31927 | 37110 ft | 533 kts | 77° |
| 2026-05-06 22:10 | 41.01656 | -96.22352 | 37101 ft | 533 kts | 77° |
| 2026-05-06 22:11 | 41.03324 | -96.12831 | 37104 ft | 534 kts | 77° |
| 2026-05-06 22:11 | 41.05001 | -96.03223 | 37085 ft | 535 kts | 77° |
| 2026-05-06 22:12 | 41.06671 | -95.93605 | 37087 ft | 536 kts | 77° |
| 2026-05-06 22:12 | 41.08336 | -95.83968 | 37078 ft | 536 kts | 77° |
| 2026-05-06 22:13 | 41.09985 | -95.74374 | 37091 ft | 537 kts | 77° |
| 2026-05-06 22:13 | 41.11639 | -95.64694 | 37087 ft | 538 kts | 77° |
| 2026-05-06 22:14 | 41.13289 | -95.54989 | 37099 ft | 539 kts | 77° |
| 2026-05-06 22:14 | 41.14932 | -95.45270 | 37093 ft | 539 kts | 77° |
| 2026-05-06 22:15 | 41.16558 | -95.35596 | 37099 ft | 540 kts | 77° |
| 2026-05-06 22:15 | 41.18188 | -95.25847 | 37096 ft | 541 kts | 77° |
| 2026-05-06 22:16 | 41.19813 | -95.16076 | 37101 ft | 541 kts | 77° |
| 2026-05-06 22:16 | 41.21432 | -95.06288 | 37090 ft | 542 kts | 78° |
| 2026-05-06 22:17 | 41.23032 | -94.96555 | 37095 ft | 542 kts | 78° |
| 2026-05-06 22:17 | 41.24637 | -94.86739 | 37092 ft | 543 kts | 78° |
| 2026-05-06 22:18 | 41.26234 | -94.76913 | 37101 ft | 544 kts | 78° |
| 2026-05-06 22:18 | 41.27827 | -94.67062 | 37094 ft | 545 kts | 78° |
| 2026-05-06 22:19 | 41.29400 | -94.57272 | 37112 ft | 545 kts | 78° |
| 2026-05-06 22:19 | 41.30977 | -94.47403 | 37099 ft | 546 kts | 78° |
| 2026-05-06 22:20 | 41.32548 | -94.37513 | 37108 ft | 546 kts | 78° |
| 2026-05-06 22:20 | 41.34109 | -94.27628 | 37110 ft | 546 kts | 78° |
| 2026-05-06 22:21 | 41.35656 | -94.17773 | 37113 ft | 546 kts | 78° |
| 2026-05-06 22:21 | 41.37202 | -94.07870 | 37109 ft | 547 kts | 78° |
| 2026-05-06 22:22 | 41.38741 | -93.97945 | 37112 ft | 547 kts | 78° |
| 2026-05-06 22:22 | 41.40273 | -93.88012 | 37106 ft | 547 kts | 78° |
| 2026-05-06 22:23 | 41.41789 | -93.78115 | 37107 ft | 548 kts | 78° |
| 2026-05-06 22:23 | 41.43308 | -93.68152 | 37094 ft | 548 kts | 78° |
| 2026-05-06 22:24 | 41.44483 | -93.58090 | 37109 ft | 548 kts | 84° |
| 2026-05-06 22:24 | 41.45206 | -93.48029 | 37107 ft | 549 kts | 86° |
| 2026-05-06 22:25 | 41.45881 | -93.37882 | 37099 ft | 549 kts | 85° |
| 2026-05-06 22:25 | 41.46599 | -93.27731 | 37094 ft | 550 kts | 85° |
| 2026-05-06 22:26 | 41.47345 | -93.17570 | 37097 ft | 550 kts | 85° |
| 2026-05-06 22:26 | 41.48091 | -93.07402 | 37097 ft | 551 kts | 85° |
| 2026-05-06 22:27 | 41.48825 | -92.97215 | 37099 ft | 551 kts | 85° |
| 2026-05-06 22:27 | 41.49543 | -92.87083 | 37100 ft | 551 kts | 85° |
| 2026-05-06 22:28 | 41.50256 | -92.76878 | 37105 ft | 552 kts | 85° |
| 2026-05-06 22:28 | 41.50958 | -92.66707 | 37091 ft | 553 kts | 85° |
| 2026-05-06 22:29 | 41.51654 | -92.56489 | 37101 ft | 553 kts | 85° |
| 2026-05-06 22:29 | 41.52342 | -92.46256 | 37092 ft | 553 kts | 85° |
| 2026-05-06 22:30 | 41.53021 | -92.36016 | 37095 ft | 553 kts | 85° |
| 2026-05-06 22:30 | 41.53691 | -92.25784 | 37089 ft | 553 kts | 85° |
| 2026-05-06 22:31 | 41.54347 | -92.15605 | 37098 ft | 553 kts | 85° |
| 2026-05-06 22:31 | 41.54998 | -92.05373 | 37088 ft | 553 kts | 85° |
| 2026-05-06 22:32 | 41.55534 | -91.96849 | 37099 ft | 553 kts | 86° |
| 2026-05-06 22:32 | 41.56169 | -91.86598 | 37087 ft | 553 kts | 86° |
| 2026-05-06 22:33 | 41.56792 | -91.76391 | 37089 ft | 553 kts | 86° |
| 2026-05-06 22:33 | 41.57409 | -91.66152 | 37091 ft | 554 kts | 86° |
| 2026-05-06 22:34 | 41.58017 | -91.55891 | 37093 ft | 554 kts | 86° |
| 2026-05-06 22:34 | 41.58617 | -91.45617 | 37091 ft | 554 kts | 86° |
| 2026-05-06 22:35 | 41.59207 | -91.35345 | 37087 ft | 554 kts | 86° |
| 2026-05-06 22:35 | 41.59785 | -91.25137 | 37088 ft | 555 kts | 86° |
| 2026-05-06 22:36 | 41.60360 | -91.14816 | 37081 ft | 555 kts | 86° |
| 2026-05-06 22:36 | 41.60924 | -91.04522 | 37080 ft | 555 kts | 86° |
| 2026-05-06 22:37 | 41.61476 | -90.94261 | 37077 ft | 555 kts | 86° |
| 2026-05-06 22:37 | 41.62023 | -90.83945 | 37071 ft | 556 kts | 86° |
| 2026-05-06 22:38 | 41.62560 | -90.73629 | 37069 ft | 556 kts | 86° |
| 2026-05-06 22:38 | 41.63085 | -90.63369 | 37066 ft | 557 kts | 86° |
| 2026-05-06 22:39 | 41.63606 | -90.53021 | 37076 ft | 557 kts | 86° |
| 2026-05-06 22:39 | 41.64116 | -90.42678 | 37065 ft | 557 kts | 86° |
| 2026-05-06 22:40 | 41.64615 | -90.32388 | 37072 ft | 557 kts | 86° |
| 2026-05-06 22:40 | 41.65108 | -90.22031 | 37065 ft | 557 kts | 86° |
| 2026-05-06 22:41 | 41.65830 | -90.06478 | 37074 ft | 557 kts | 87° |
| 2026-05-06 22:42 | 41.66296 | -89.96180 | 37063 ft | 558 kts | 87° |
| 2026-05-06 22:42 | 41.66758 | -89.85787 | 37064 ft | 558 kts | 87° |
| 2026-05-06 22:43 | 41.67206 | -89.75482 | 37057 ft | 558 kts | 87° |
| 2026-05-06 22:43 | 41.67649 | -89.65081 | 37067 ft | 558 kts | 87° |
| 2026-05-06 22:44 | 41.68080 | -89.54755 | 37056 ft | 559 kts | 87° |
| 2026-05-06 22:44 | 41.68505 | -89.44340 | 37060 ft | 559 kts | 87° |
| 2026-05-06 22:45 | 41.68919 | -89.33949 | 37048 ft | 559 kts | 87° |
| 2026-05-06 22:45 | 41.69325 | -89.23533 | 37049 ft | 559 kts | 87° |
| 2026-05-06 22:46 | 41.69718 | -89.13198 | 37046 ft | 560 kts | 87° |
| 2026-05-06 22:46 | 41.70106 | -89.02764 | 37045 ft | 560 kts | 87° |
| 2026-05-06 22:47 | 41.70484 | -88.92344 | 37041 ft | 560 kts | 87° |
| 2026-05-06 22:47 | 41.70851 | -88.81959 | 37036 ft | 560 kts | 87° |
| 2026-05-06 22:48 | 41.71210 | -88.71531 | 37013 ft | 560 kts | 87° |
| 2026-05-06 22:48 | 41.71558 | -88.61174 | 37011 ft | 560 kts | 87° |
| 2026-05-06 22:49 | 41.71898 | -88.50736 | 37002 ft | 560 kts | 88° |
| 2026-05-06 22:49 | 41.72229 | -88.40316 | 37010 ft | 560 kts | 88° |
| 2026-05-06 22:50 | 41.72548 | -88.29955 | 37006 ft | 560 kts | 88° |
| 2026-05-06 22:50 | 41.72861 | -88.19503 | 37023 ft | 560 kts | 88° |
| 2026-05-06 22:51 | 41.73162 | -88.09136 | 37024 ft | 560 kts | 88° |
| 2026-05-06 22:51 | 41.73455 | -87.98723 | 37021 ft | 560 kts | 88° |
| 2026-05-06 22:52 | 41.73739 | -87.88287 | 37010 ft | 560 kts | 88° |
| 2026-05-06 22:52 | 41.74012 | -87.77882 | 36993 ft | 561 kts | 88° |
| 2026-05-06 22:53 | 41.74278 | -87.67417 | 36998 ft | 561 kts | 88° |
| 2026-05-06 22:53 | 41.74534 | -87.56977 | 37002 ft | 560 kts | 88° |
| 2026-05-06 22:54 | 41.74779 | -87.46590 | 36982 ft | 560 kts | 88° |
| 2026-05-06 22:54 | 41.75015 | -87.36160 | 36990 ft | 560 kts | 88° |
| 2026-05-06 22:55 | 41.75243 | -87.25708 | 36987 ft | 559 kts | 88° |
| 2026-05-06 22:55 | 41.75459 | -87.15335 | 36996 ft | 559 kts | 88° |
| 2026-05-06 22:56 | 41.75667 | -87.04926 | 37000 ft | 559 kts | 88° |
| 2026-05-06 22:56 | 41.75864 | -86.94571 | 37008 ft | 558 kts | 88° |
| 2026-05-06 22:57 | 41.76053 | -86.84158 | 37006 ft | 558 kts | 88° |
| 2026-05-06 22:57 | 41.76233 | -86.73734 | 37019 ft | 559 kts | 88° |
| 2026-05-06 22:58 | 41.76403 | -86.63379 | 37004 ft | 559 kts | 88° |
| 2026-05-06 22:58 | 41.76564 | -86.52937 | 37003 ft | 560 kts | 88° |
| 2026-05-06 22:59 | 41.76716 | -86.42506 | 36998 ft | 560 kts | 88° |
| 2026-05-06 22:59 | 41.76858 | -86.32101 | 37010 ft | 560 kts | 88° |
| 2026-05-06 23:00 | 41.76991 | -86.21659 | 37002 ft | 560 kts | 88° |
| 2026-05-06 23:00 | 41.77114 | -86.11276 | 36994 ft | 560 kts | 88° |
| 2026-05-06 23:01 | 41.77228 | -86.00822 | 36989 ft | 559 kts | 88° |
| 2026-05-06 23:01 | 41.77332 | -85.90401 | 36990 ft | 559 kts | 88° |
| 2026-05-06 23:02 | 41.77427 | -85.79982 | 36991 ft | 559 kts | 88° |
| 2026-05-06 23:02 | 41.77512 | -85.69614 | 36999 ft | 558 kts | 88° |
| 2026-05-06 23:03 | 41.77589 | -85.59198 | 36990 ft | 558 kts | 88° |
| 2026-05-06 23:03 | 41.77655 | -85.48778 | 36992 ft | 558 kts | 88° |
| 2026-05-06 23:04 | 41.77715 | -85.38443 | 36989 ft | 557 kts | 87° |
| 2026-05-06 23:04 | 41.77762 | -85.28050 | 36996 ft | 556 kts | 87° |
| 2026-05-06 23:05 | 41.77799 | -85.17676 | 37002 ft | 556 kts | 88° |
| 2026-05-06 23:05 | 41.77828 | -85.07358 | 36993 ft | 556 kts | 88° |
| 2026-05-06 23:06 | 41.77848 | -84.96994 | 36996 ft | 556 kts | 88° |
| 2026-05-06 23:06 | 41.77858 | -84.86627 | 37000 ft | 556 kts | 88° |
| 2026-05-06 23:07 | 41.77860 | -84.76309 | 36994 ft | 555 kts | 88° |
| 2026-05-06 23:07 | 41.77852 | -84.65945 | 36984 ft | 555 kts | 88° |
| 2026-05-06 23:08 | 41.77835 | -84.55601 | 36995 ft | 554 kts | 88° |
| 2026-05-06 23:08 | 41.77810 | -84.45282 | 36989 ft | 554 kts | 88° |
| 2026-05-06 23:09 | 41.77770 | -84.34946 | 36990 ft | 554 kts | 88° |
| 2026-05-06 23:09 | 41.77712 | -84.24690 | 36990 ft | 553 kts | 88° |
| 2026-05-06 23:10 | 41.77646 | -84.14376 | 36994 ft | 553 kts | 89° |
| 2026-05-06 23:10 | 41.77573 | -84.04126 | 36992 ft | 552 kts | 89° |
| 2026-05-06 23:11 | 41.77490 | -83.93815 | 36993 ft | 552 kts | 89° |
| 2026-05-06 23:11 | 41.77399 | -83.83510 | 36978 ft | 552 kts | 89° |
| 2026-05-06 23:12 | 41.77299 | -83.73273 | 36981 ft | 551 kts | 89° |
| 2026-05-06 23:12 | 41.77262 | -83.69741 | 36972 ft | 552 kts | 89° |
| 2026-05-07 00:02 | 41.77229 | -83.66177 | 37116 ft | 555 kts | 95° |
| 2026-05-07 00:03 | 41.77099 | -83.55775 | 37035 ft | 567 kts | 96° |
| 2026-05-07 00:03 | 41.76282 | -83.45270 | 36985 ft | 566 kts | 103° |
| 2026-05-07 00:04 | 41.75187 | -83.34802 | 36975 ft | 567 kts | 104° |
| 2026-05-07 00:04 | 41.74115 | -83.24304 | 36988 ft | 569 kts | 103° |
| 2026-05-07 00:05 | 41.73088 | -83.13849 | 36984 ft | 569 kts | 103° |